Terminal Aerodrome Forecast
Issued by NWS Billings, MT

Home | Current Version | Previous Version | Graphics & Text | Print | Product List | Glossary On
Versions: 1 2 3 4 5 6 7 8 9 10 11 12 13 14 15 16 17 18 19 20 21 22 23 24 25 26 27 28 29 30
000
FTUS45 KBYZ 230304 AAA
TAFMLS
TAF AMD
KMLS 230304Z 2303/2324 32020G30KT P6SM SCT100
     FM230400 33017KT P6SM VCSH BKN050
     FM230900 31010KT P6SM FEW100
     FM231600 32016G23KT P6SM SCT060=

USA.gov is the U.S. government's official web portal to all federal, state and local government web resources and services.